SKCL/CLO METAR and TAF weather

Enter ICAO airport designator
Station Type Date Time Source
SKCL METAR 2021/05/11 23:00 UTC NOAA

SKCL 112300Z 32011KT 9999 FEW030 SCT100 BKN300 26/20 Q1011 NOSIG RMK A2987


Station Type Date Time Source
SKCL Decoded METAR 2021/05/11 23:00 UTC NOAA

Cali / Alfonso Bonillaaragon, Colombia (SKCL) 03-33N 076-23W 969M
May 11, 2021 - 07:00 PM EDT / 2021.05.11 2300 UTC
Wind: from the NW (320 degrees) at 13 MPH (11 KT):0
Visibility: greater than 7 mile(s):0
Sky conditions: mostly cloudy
Temperature: 78 F (26 C)
Dew Point: 68 F (20 C)
Relative Humidity: 69%
Pressure (altimeter): 29.85 in. Hg (1011 hPa)
ob: SKCL 112300Z 32011KT 9999 FEW030 SCT100 BKN300 26/20 Q1011 NOSIG RMK A2987
cycle: 23

Station Type Date Time Source
SKCL TAF 2021/05/11 18:30 UTC NOAA

TAF SKCL 111630Z 1118/1218 34010KT 9999 SCT020 SCT150
BECMG 1120/1121 SCT018TCU
TEMPO 1121/1201 8000 VCSH
BECMG 1201/1203 VRB03KT FEW017 SCT130
TEMPO 1211/1214 7000 VCFG TX32/1119Z TN18/1211Z

Example: see airport list